createdAt,value
2018-11-22T00:00:19.204Z,0.67
2018-11-22T00:01:19.197Z,0.75
2018-11-22T00:02:19.192Z,0.70
2018-11-22T00:03:19.177Z,0.75
2018-11-22T00:04:19.164Z,0.82
2018-11-22T00:05:19.154Z,0.72
2018-11-22T00:06:19.142Z,0.76
2018-11-22T00:07:19.133Z,0.76
2018-11-22T00:08:19.122Z,0.68
2018-11-22T00:09:19.113Z,0.68
2018-11-22T00:10:19.100Z,0.65
2018-11-22T00:11:19.087Z,0.76
2018-11-22T00:12:19.080Z,0.72
2018-11-22T00:13:19.071Z,0.78
2018-11-22T00:14:19.061Z,0.75
2018-11-22T00:15:19.054Z,0.79
2018-11-22T00:16:19.039Z,0.82
2018-11-22T00:17:19.027Z,0.86
2018-11-22T00:18:19.019Z,0.82
2018-11-22T00:19:19.012Z,0.75
2018-11-22T00:20:18.998Z,0.90
2018-11-22T00:21:18.991Z,0.88
2018-11-22T00:22:18.977Z,0.83
2018-11-22T00:23:18.965Z,0.80
2018-11-22T00:24:18.957Z,0.83
2018-11-22T00:25:18.945Z,0.92
2018-11-22T00:26:18.936Z,0.90
2018-11-22T00:27:18.924Z,0.85
2018-11-22T00:28:18.914Z,0.83
2018-11-22T00:29:18.902Z,0.88
2018-11-22T00:30:18.895Z,0.83
2018-11-22T00:31:18.885Z,0.85
2018-11-22T00:32:18.871Z,0.83
2018-11-22T00:33:18.864Z,0.86
2018-11-22T00:34:18.844Z,0.82
2018-11-22T00:35:18.843Z,0.80
2018-11-22T00:36:18.830Z,0.83
2018-11-22T00:37:18.822Z,0.79
2018-11-22T00:38:18.812Z,0.86
2018-11-22T00:39:18.801Z,0.76
2018-11-22T00:40:18.789Z,0.79
2018-11-22T00:41:18.779Z,0.75
2018-11-22T00:42:18.769Z,0.76
2018-11-22T00:43:18.757Z,0.75
2018-11-22T00:44:18.748Z,0.75
2018-11-22T00:45:18.734Z,0.79
2018-11-22T00:46:18.727Z,0.75
2018-11-22T00:47:18.725Z,0.65
2018-11-22T00:48:18.709Z,0.72
2018-11-22T00:49:18.695Z,0.78
2018-11-22T00:50:18.685Z,0.70
2018-11-22T00:51:18.676Z,0.62
2018-11-22T00:52:18.666Z,0.70
2018-11-22T00:53:18.654Z,0.61
2018-11-22T00:54:18.643Z,0.62
2018-11-22T00:55:18.635Z,0.65
2018-11-22T00:56:18.620Z,0.51
2018-11-22T00:57:18.612Z,0.64
2018-11-22T00:58:18.602Z,0.68
2018-11-22T00:59:18.591Z,0.70
2018-11-22T01:00:18.588Z,0.65
2018-11-22T01:01:18.569Z,0.67
2018-11-22T01:02:18.557Z,0.64
2018-11-22T01:03:18.551Z,0.65
2018-11-22T01:04:18.537Z,0.64
2018-11-22T01:05:18.526Z,0.72
2018-11-22T01:06:18.516Z,0.68
2018-11-22T01:07:18.497Z,0.64
2018-11-22T01:08:18.496Z,0.65
2018-11-22T01:09:18.489Z,0.62
2018-11-22T01:10:18.474Z,0.68
2018-11-22T01:11:18.463Z,0.58
2018-11-22T01:12:18.453Z,0.64
2018-11-22T01:13:18.448Z,0.62
2018-11-22T01:14:18.433Z,0.61
2018-11-22T01:15:18.422Z,0.62
2018-11-22T01:16:18.418Z,0.71
2018-11-22T01:17:18.399Z,0.67
2018-11-22T01:18:18.392Z,0.57
2018-11-22T01:19:18.380Z,0.64
2018-11-22T01:20:18.363Z,0.65
2018-11-22T01:21:18.358Z,0.68
2018-11-22T01:22:18.347Z,0.64
2018-11-22T01:23:18.339Z,0.68
2018-11-22T01:24:18.326Z,0.65
2018-11-22T01:25:18.319Z,0.53
2018-11-22T01:26:18.304Z,0.49
2018-11-22T01:27:18.295Z,0.65
2018-11-22T01:28:18.283Z,0.60
2018-11-22T01:29:18.275Z,0.64
2018-11-22T01:30:18.255Z,0.72
2018-11-22T01:31:18.253Z,0.68
2018-11-22T01:32:18.240Z,0.62
2018-11-22T01:33:18.231Z,0.79
2018-11-22T01:34:18.218Z,0.71
2018-11-22T01:35:18.208Z,0.72
2018-11-22T01:36:18.202Z,0.67
2018-11-22T01:37:18.185Z,0.70
2018-11-22T01:38:18.175Z,0.72
2018-11-22T01:39:18.163Z,0.71
2018-11-22T01:40:18.154Z,0.75
2018-11-22T01:41:18.142Z,0.67
2018-11-22T01:42:18.132Z,0.76
2018-11-22T01:43:18.121Z,0.78
2018-11-22T01:44:18.116Z,0.78
2018-11-22T01:45:18.101Z,0.79
2018-11-22T01:46:18.090Z,0.71
2018-11-22T01:47:18.080Z,0.79
2018-11-22T01:48:18.068Z,0.85
2018-11-22T01:49:18.062Z,0.72
2018-11-22T01:50:18.046Z,0.72
2018-11-22T01:51:18.041Z,0.82
2018-11-22T01:52:18.032Z,0.79
2018-11-22T01:53:18.014Z,0.71
2018-11-22T01:54:18.005Z,0.67
2018-11-22T01:55:17.996Z,0.70
2018-11-22T01:56:17.983Z,0.70
2018-11-22T01:57:17.969Z,0.68
2018-11-22T01:58:17.965Z,0.65
2018-11-22T01:59:17.974Z,0.68
2018-11-22T02:00:17.940Z,0.65
2018-11-22T02:01:17.931Z,0.76
2018-11-22T02:02:17.922Z,0.78
2018-11-22T02:03:17.912Z,0.75
2018-11-22T02:04:17.897Z,0.75
2018-11-22T02:05:17.890Z,0.78
2018-11-22T02:06:17.877Z,0.85
2018-11-22T02:07:17.869Z,0.83
2018-11-22T02:08:17.848Z,0.80
2018-11-22T02:09:17.845Z,0.78
2018-11-22T02:10:17.833Z,0.79
2018-11-22T02:11:17.825Z,0.70
2018-11-22T02:12:17.807Z,0.76
2018-11-22T02:13:17.810Z,0.78
2018-11-22T02:14:17.789Z,0.79
2018-11-22T02:15:17.814Z,0.75
2018-11-22T02:16:17.773Z,0.72
2018-11-22T02:17:17.758Z,0.78
2018-11-22T02:18:17.752Z,0.72
2018-11-22T02:19:17.740Z,0.75
2018-11-22T02:20:17.725Z,0.76
2018-11-22T02:21:17.716Z,0.82
2018-11-22T02:22:17.703Z,0.75
2018-11-22T02:23:17.697Z,0.82
2018-11-22T02:24:17.687Z,0.83
2018-11-22T02:25:17.671Z,0.89
2018-11-22T02:26:17.673Z,0.78
2018-11-22T02:27:17.654Z,0.78
2018-11-22T02:28:17.642Z,0.80
2018-11-22T02:29:17.621Z,0.78
2018-11-22T02:30:17.620Z,0.76
2018-11-22T02:31:17.609Z,0.65
2018-11-22T02:32:17.599Z,0.72
2018-11-22T02:33:17.589Z,0.72
2018-11-22T02:34:17.575Z,0.76
2018-11-22T02:35:17.567Z,0.78
2018-11-22T02:36:17.552Z,0.78
2018-11-22T02:37:17.544Z,0.80
2018-11-22T02:38:17.532Z,0.78
2018-11-22T02:39:17.520Z,0.72
2018-11-22T02:40:17.509Z,0.72
2018-11-22T02:41:17.502Z,0.80
2018-11-22T02:42:17.486Z,0.67
2018-11-22T02:43:17.479Z,0.72
2018-11-22T02:44:17.470Z,0.78
2018-11-22T02:45:17.469Z,0.70
2018-11-22T02:46:17.446Z,0.75
2018-11-22T02:47:17.436Z,0.72
2018-11-22T02:48:17.424Z,0.75
2018-11-22T02:49:17.416Z,0.70
2018-11-22T02:50:17.403Z,0.67
2018-11-22T02:51:17.394Z,0.68
2018-11-22T02:52:17.382Z,0.72
2018-11-22T02:53:17.371Z,0.70
2018-11-22T02:54:17.360Z,0.67
2018-11-22T02:55:17.350Z,0.64
2018-11-22T02:56:17.339Z,0.65
2018-11-22T02:57:17.327Z,0.65
2018-11-22T02:58:17.315Z,0.68
2018-11-22T02:59:17.307Z,0.71
2018-11-22T03:00:17.294Z,0.68
2018-11-22T03:01:17.285Z,0.68
2018-11-22T03:02:17.273Z,0.70
2018-11-22T03:03:17.264Z,0.78
2018-11-22T03:04:17.251Z,0.79
2018-11-22T03:05:17.241Z,0.71
2018-11-22T03:06:17.231Z,0.64
2018-11-22T03:07:17.221Z,0.72
2018-11-22T03:08:17.212Z,0.71
2018-11-22T03:09:17.200Z,0.75
2018-11-22T03:10:17.186Z,0.65
2018-11-22T03:11:17.174Z,0.75
2018-11-22T03:12:17.164Z,0.72
2018-11-22T03:13:17.155Z,0.68
2018-11-22T03:14:17.144Z,0.67
2018-11-22T03:15:17.132Z,0.79
2018-11-22T03:16:17.123Z,0.72
2018-11-22T03:17:17.113Z,0.76
2018-11-22T03:18:17.103Z,0.71
2018-11-22T03:19:17.093Z,0.62
2018-11-22T03:20:17.077Z,0.78
2018-11-22T03:21:17.067Z,0.76
2018-11-22T03:22:17.053Z,0.79
2018-11-22T03:23:17.046Z,0.71
2018-11-22T03:24:17.034Z,0.72
2018-11-22T03:25:17.028Z,0.65
2018-11-22T03:26:17.014Z,0.72
2018-11-22T03:27:17.002Z,0.75
2018-11-22T03:28:16.996Z,0.75
2018-11-22T03:29:16.977Z,0.71
2018-11-22T03:30:16.973Z,0.68
2018-11-22T03:31:16.959Z,0.70
2018-11-22T03:32:16.951Z,0.79
2018-11-22T03:33:16.937Z,0.68
2018-11-22T03:34:16.927Z,0.76
2018-11-22T03:35:16.917Z,0.72
2018-11-22T03:36:16.903Z,0.62
2018-11-22T03:37:16.893Z,0.78
2018-11-22T03:38:16.885Z,0.75
2018-11-22T03:39:16.872Z,0.79
2018-11-22T03:40:16.861Z,0.76
2018-11-22T03:41:16.850Z,0.78
2018-11-22T03:42:16.839Z,0.75
2018-11-22T03:43:16.828Z,0.82
2018-11-22T03:44:16.816Z,0.78
2018-11-22T03:45:16.804Z,0.75
2018-11-22T03:46:16.800Z,0.86
2018-11-22T03:47:16.784Z,0.78
2018-11-22T03:48:16.772Z,0.75
2018-11-22T03:49:16.763Z,0.79
2018-11-22T03:50:16.752Z,0.79
2018-11-22T03:51:16.742Z,0.70
2018-11-22T03:52:16.730Z,0.70
2018-11-22T03:53:16.718Z,0.72
2018-11-22T03:54:16.709Z,0.67
2018-11-22T03:55:16.699Z,0.68
2018-11-22T03:56:16.688Z,0.71
2018-11-22T03:57:16.677Z,0.62
2018-11-22T03:58:16.667Z,0.65
2018-11-22T03:59:16.655Z,0.68
2018-11-22T04:00:16.649Z,0.71
2018-11-22T04:01:16.632Z,0.72
2018-11-22T04:02:16.624Z,0.75
2018-11-22T04:03:16.614Z,0.65
2018-11-22T04:04:16.604Z,0.70
2018-11-22T04:05:16.591Z,0.70
2018-11-22T04:06:16.577Z,0.72
2018-11-22T04:07:16.559Z,0.76
2018-11-22T04:08:16.556Z,0.64
2018-11-22T04:09:16.547Z,0.78
2018-11-22T04:10:16.539Z,0.72
2018-11-22T04:11:16.525Z,0.68
2018-11-22T04:12:16.524Z,0.72
2018-11-22T04:13:16.501Z,0.65
2018-11-22T04:14:16.481Z,0.61
2018-11-22T04:15:16.480Z,0.75
2018-11-22T04:16:16.467Z,0.79
2018-11-22T04:17:16.461Z,0.68
2018-11-22T04:18:16.437Z,0.71
2018-11-22T04:19:16.437Z,0.65
2018-11-22T04:20:16.424Z,0.78
2018-11-22T04:21:16.415Z,0.71
2018-11-22T04:22:16.403Z,0.78
2018-11-22T04:23:16.400Z,0.70
2018-11-22T04:24:16.381Z,0.72
2018-11-22T04:25:16.371Z,0.78
2018-11-22T04:26:16.945Z,0.76
2018-11-22T04:27:16.361Z,0.79
2018-11-22T04:28:16.339Z,0.76
2018-11-22T04:29:16.328Z,0.82
2018-11-22T04:30:16.320Z,0.83
2018-11-22T04:31:16.307Z,0.71
2018-11-22T04:32:16.301Z,0.79
2018-11-22T04:33:16.285Z,0.79
2018-11-22T04:34:16.279Z,0.80
2018-11-22T04:35:16.261Z,0.79
2018-11-22T04:36:16.255Z,0.80
2018-11-22T04:37:16.242Z,0.76
2018-11-22T04:38:16.231Z,0.82
2018-11-22T04:39:16.225Z,0.71
2018-11-22T04:40:16.211Z,0.85
2018-11-22T04:41:16.198Z,0.88
2018-11-22T04:42:16.186Z,0.85
2018-11-22T04:43:16.176Z,0.82
2018-11-22T04:44:16.170Z,0.79
2018-11-22T04:45:16.156Z,0.78
2018-11-22T04:46:16.144Z,0.76
2018-11-22T04:47:16.134Z,0.79
2018-11-22T04:48:16.122Z,0.76
2018-11-22T04:49:16.112Z,0.79
2018-11-22T04:50:16.104Z,0.76
2018-11-22T04:51:16.094Z,0.80
2018-11-22T04:52:16.077Z,0.79
2018-11-22T04:53:16.068Z,0.82
2018-11-22T04:54:16.062Z,0.79
2018-11-22T04:55:16.047Z,0.88
2018-11-22T04:56:16.038Z,0.83
2018-11-22T04:57:16.036Z,0.80
2018-11-22T04:58:16.020Z,0.90
2018-11-22T04:59:16.007Z,0.92
2018-11-22T05:00:15.994Z,0.96
2018-11-22T05:01:15.984Z,0.88
2018-11-22T05:02:15.974Z,0.96
2018-11-22T05:03:15.966Z,0.85
2018-11-22T05:04:15.950Z,0.94
2018-11-22T05:05:15.941Z,0.82
2018-11-22T05:06:15.930Z,0.88
2018-11-22T05:07:15.922Z,0.92
2018-11-22T05:08:15.909Z,0.96
2018-11-22T05:09:15.897Z,1.01
2018-11-22T05:10:15.887Z,0.92
2018-11-22T05:11:15.882Z,0.98
2018-11-22T05:12:15.872Z,0.96
2018-11-22T05:13:15.855Z,1.03
2018-11-22T05:14:15.843Z,1.01
2018-11-22T05:15:15.838Z,1.06
2018-11-22T05:16:15.827Z,1.06
2018-11-22T05:17:15.813Z,1.07
2018-11-22T05:18:15.803Z,1.06
2018-11-22T05:19:15.793Z,1.03
2018-11-22T05:20:15.782Z,1.06
2018-11-22T05:21:15.770Z,1.03
2018-11-22T05:22:15.758Z,1.04
2018-11-22T05:23:15.751Z,1.06
2018-11-22T05:24:15.742Z,1.10
2018-11-22T05:25:15.730Z,1.04
2018-11-22T05:26:15.722Z,1.06
2018-11-22T05:27:15.711Z,0.98
2018-11-22T05:28:15.691Z,1.12
2018-11-22T05:29:15.690Z,1.08
2018-11-22T05:30:15.687Z,1.16
2018-11-22T05:31:15.669Z,1.19
2018-11-22T05:32:15.655Z,1.22
2018-11-22T05:33:15.646Z,1.26
2018-11-22T05:34:15.634Z,1.07
2018-11-22T05:35:15.620Z,1.18
2018-11-22T05:36:15.618Z,1.28
2018-11-22T05:37:15.606Z,1.26
2018-11-22T05:38:15.598Z,1.26
2018-11-22T05:39:15.585Z,1.32
2018-11-22T05:40:15.574Z,1.32
2018-11-22T05:41:15.564Z,1.33
2018-11-22T05:42:15.553Z,1.40
2018-11-22T05:43:15.542Z,1.21
2018-11-22T05:44:15.534Z,1.28
2018-11-22T05:45:15.522Z,1.44
2018-11-22T05:46:15.513Z,1.34
2018-11-22T05:47:15.503Z,1.44
2018-11-22T05:48:15.491Z,1.50
2018-11-22T05:49:15.482Z,1.50
2018-11-22T05:50:15.473Z,1.46
2018-11-22T05:51:15.464Z,1.42
2018-11-22T05:52:15.453Z,1.44
2018-11-22T05:53:15.444Z,1.54
2018-11-22T05:54:15.432Z,1.39
2018-11-22T05:55:15.423Z,1.52
2018-11-22T05:56:15.402Z,1.54
2018-11-22T05:57:15.405Z,1.54
2018-11-22T05:58:15.393Z,1.44
2018-11-22T05:59:15.395Z,1.43
2018-11-22T06:00:15.399Z,1.44
2018-11-22T06:01:16.395Z,1.44
2018-11-22T06:02:15.353Z,1.50
2018-11-22T06:03:15.344Z,1.33
2018-11-22T06:04:15.334Z,1.36
2018-11-22T06:05:15.321Z,1.37
2018-11-22T06:06:15.316Z,1.36
2018-11-22T06:07:15.303Z,1.34
2018-11-22T06:08:15.292Z,1.36
2018-11-22T06:09:15.300Z,1.32
2018-11-22T06:10:15.273Z,1.21
2018-11-22T06:11:15.264Z,1.16
2018-11-22T06:12:15.251Z,1.19
2018-11-22T06:13:15.243Z,1.15
2018-11-22T06:14:15.236Z,1.08
2018-11-22T06:15:15.223Z,1.10
2018-11-22T06:16:15.210Z,1.01
2018-11-22T06:17:15.195Z,1.03
2018-11-22T06:18:15.195Z,0.96
2018-11-22T06:19:15.187Z,0.96
2018-11-22T06:20:15.168Z,0.98
2018-11-22T06:21:15.160Z,1.06
2018-11-22T06:22:15.152Z,1.07
2018-11-22T06:23:15.137Z,1.07
2018-11-22T06:24:15.132Z,0.98
2018-11-22T06:25:15.120Z,1.07
2018-11-22T06:26:15.108Z,1.08
2018-11-22T06:27:15.100Z,0.98
2018-11-22T06:28:15.087Z,1.06
2018-11-22T06:29:15.080Z,1.04
2018-11-22T06:30:15.067Z,0.97
2018-11-22T06:31:15.057Z,0.97
2018-11-22T06:32:15.047Z,1.03
2018-11-22T06:33:15.038Z,1.06
2018-11-22T06:34:15.030Z,1.06
2018-11-22T06:35:15.013Z,0.94
2018-11-22T06:36:15.005Z,1.00
2018-11-22T06:37:15.002Z,1.01
2018-11-22T06:38:14.985Z,1.03
2018-11-22T06:39:14.977Z,1.04
2018-11-22T06:40:14.962Z,0.98
2018-11-22T06:41:14.967Z,1.07
2018-11-22T06:42:14.942Z,1.00
2018-11-22T06:43:14.936Z,1.06
2018-11-22T06:44:14.920Z,0.98
2018-11-22T06:45:14.909Z,0.92
2018-11-22T06:46:14.900Z,0.97
2018-11-22T06:47:14.889Z,0.96
2018-11-22T06:48:14.877Z,1.04
2018-11-22T06:49:14.868Z,0.97
2018-11-22T06:50:14.855Z,0.98
2018-11-22T06:51:14.847Z,1.03
2018-11-22T06:52:14.834Z,1.00
2018-11-22T06:53:14.821Z,0.97
2018-11-22T06:54:14.804Z,0.97
2018-11-22T06:55:14.805Z,1.07
2018-11-22T06:56:14.794Z,1.04
2018-11-22T06:57:14.788Z,0.96
2018-11-22T06:58:14.773Z,1.04
2018-11-22T06:59:14.761Z,1.06
2018-11-22T07:00:14.755Z,1.10
2018-11-22T07:01:14.746Z,1.08
2018-11-22T07:02:14.730Z,1.10
2018-11-22T07:03:14.722Z,1.15
2018-11-22T07:04:14.712Z,1.24
2018-11-22T07:05:14.706Z,1.16
2018-11-22T07:06:14.690Z,1.14
2018-11-22T07:07:14.710Z,1.16
2018-11-22T07:08:14.668Z,1.29
2018-11-22T07:09:14.651Z,1.26
2018-11-22T07:10:14.648Z,1.26
2018-11-22T07:11:14.639Z,1.36
2018-11-22T07:12:14.626Z,1.32
2018-11-22T07:13:14.615Z,1.32
2018-11-22T07:14:14.606Z,1.33
2018-11-22T07:15:14.597Z,1.37
2018-11-22T07:16:14.585Z,1.42
2018-11-22T07:17:14.577Z,1.47
2018-11-22T07:18:14.567Z,1.44
2018-11-22T07:19:14.554Z,1.40
2018-11-22T07:20:14.535Z,1.47
2018-11-22T07:21:14.540Z,1.51
2018-11-22T07:22:18.869Z,1.54
2018-11-22T07:23:14.515Z,1.61
2018-11-22T07:24:14.503Z,1.60
2018-11-22T07:25:14.495Z,1.62
2018-11-22T07:26:14.473Z,1.64
2018-11-22T07:27:14.483Z,1.73
2018-11-22T07:28:14.467Z,1.79
2018-11-22T07:29:14.454Z,1.80
2018-11-22T07:30:14.450Z,1.76
2018-11-22T07:31:14.435Z,1.79
2018-11-22T07:32:14.425Z,1.87
2018-11-22T07:33:14.418Z,1.99
2018-11-22T07:34:14.407Z,1.94
2018-11-22T07:35:14.400Z,2.12
2018-11-22T07:36:14.386Z,2.10
2018-11-22T07:37:14.376Z,2.15
2018-11-22T07:38:14.368Z,2.20
2018-11-22T07:39:14.359Z,2.17
2018-11-22T07:40:14.361Z,2.13
2018-11-22T07:41:14.341Z,2.10
2018-11-22T07:42:14.331Z,2.20
2018-11-22T07:43:14.322Z,2.20
2018-11-22T07:44:14.313Z,2.33
2018-11-22T07:45:14.301Z,2.23
2018-11-22T07:46:14.295Z,2.28
2018-11-22T07:47:14.288Z,2.28
2018-11-22T07:48:14.279Z,2.20
2018-11-22T07:49:14.269Z,2.16
2018-11-22T07:50:14.283Z,2.10
2018-11-22T07:51:14.251Z,2.15
2018-11-22T07:52:14.240Z,2.17
2018-11-22T07:53:14.235Z,2.20
2018-11-22T07:54:14.223Z,2.20
2018-11-22T07:55:14.215Z,2.22
2018-11-22T07:56:14.207Z,2.27
2018-11-22T07:57:14.196Z,2.26
2018-11-22T07:58:14.188Z,2.20
2018-11-22T07:59:14.180Z,2.30
2018-11-22T08:00:14.164Z,2.23
2018-11-22T08:01:14.163Z,2.17
2018-11-22T08:02:14.153Z,2.26
2018-11-22T08:03:14.146Z,2.34
2018-11-22T08:04:14.136Z,2.41
2018-11-22T08:05:14.126Z,2.55
2018-11-22T08:06:14.119Z,2.63
2018-11-22T08:07:14.111Z,2.73
2018-11-22T08:08:14.103Z,2.85
2018-11-22T08:09:14.095Z,2.87
2018-11-22T08:10:14.085Z,2.84
2018-11-22T08:11:14.079Z,2.70
2018-11-22T08:12:14.067Z,2.71
2018-11-22T08:13:14.061Z,2.73
2018-11-22T08:14:14.057Z,2.69
2018-11-22T08:15:14.046Z,2.79
2018-11-22T08:16:14.037Z,2.69
2018-11-22T08:17:14.031Z,2.73
2018-11-22T08:18:14.023Z,2.71
2018-11-22T08:19:14.012Z,2.79
2018-11-22T08:20:14.002Z,2.81
2018-11-22T08:21:13.999Z,2.82
2018-11-22T08:22:13.989Z,2.84
2018-11-22T08:23:13.984Z,2.82
2018-11-22T08:24:13.974Z,2.82
2018-11-22T08:25:13.969Z,2.89
2018-11-22T08:26:13.962Z,2.98
2018-11-22T08:27:13.955Z,3.05
2018-11-22T08:28:13.944Z,3.13
2018-11-22T08:29:13.936Z,3.12
2018-11-22T08:30:13.923Z,3.27
2018-11-22T08:31:13.927Z,3.28
2018-11-22T08:32:13.913Z,3.13
2018-11-22T08:33:13.907Z,3.15
2018-11-22T08:34:13.901Z,3.21
2018-11-22T08:35:13.895Z,3.31
2018-11-22T08:36:13.900Z,3.57
2018-11-22T08:37:13.877Z,3.67
2018-11-22T08:38:13.877Z,3.70
2018-11-22T08:39:13.862Z,3.89
2018-11-22T08:40:13.857Z,4.03
2018-11-22T08:41:13.849Z,4.15
2018-11-22T08:42:13.847Z,4.29
2018-11-22T08:43:13.839Z,4.25
2018-11-22T08:44:13.831Z,4.32
2018-11-22T08:45:13.824Z,4.34
2018-11-22T08:46:13.815Z,4.39
2018-11-22T08:47:13.806Z,4.39
2018-11-22T08:48:13.804Z,4.40
2018-11-22T08:49:13.795Z,4.43
2018-11-22T08:50:13.800Z,4.47
2018-11-22T08:51:13.785Z,4.47
2018-11-22T08:52:13.777Z,4.40
2018-11-22T08:53:13.773Z,4.57
2018-11-22T08:54:13.765Z,4.75
2018-11-22T08:55:13.759Z,4.83
2018-11-22T08:56:13.754Z,4.79
2018-11-22T08:57:13.740Z,4.98
2018-11-22T08:58:13.741Z,4.91
2018-11-22T08:59:13.735Z,5.02
2018-11-22T09:00:13.727Z,5.19
2018-11-22T09:01:13.723Z,5.17
2018-11-22T09:02:13.718Z,5.37
2018-11-22T09:03:13.716Z,5.52
2018-11-22T09:04:13.713Z,5.53
2018-11-22T09:05:13.699Z,5.83
2018-11-22T09:06:13.691Z,6.06
2018-11-22T09:07:13.685Z,6.41
2018-11-22T09:08:13.682Z,6.47
2018-11-22T09:09:13.680Z,6.61
2018-11-22T09:10:13.673Z,6.59
2018-11-22T09:11:13.670Z,6.79
2018-11-22T09:12:13.663Z,7.07
2018-11-22T09:13:13.655Z,6.79
2018-11-22T09:14:13.652Z,7.08
2018-11-22T09:15:13.649Z,7.44
2018-11-22T09:16:13.641Z,7.72
2018-11-22T09:17:13.652Z,8.04
2018-11-22T09:18:13.643Z,8.22
2018-11-22T09:19:13.631Z,8.71
2018-11-22T09:20:13.627Z,8.71
2018-11-22T09:21:13.614Z,8.75
2018-11-22T09:22:13.615Z,9.12
2018-11-22T09:23:13.610Z,9.16
2018-11-22T09:24:13.610Z,9.31
2018-11-22T09:25:13.603Z,9.76
2018-11-22T09:26:13.606Z,9.52
2018-11-22T09:27:13.599Z,9.75
2018-11-22T09:28:13.595Z,9.99
2018-11-22T09:29:13.589Z,10.40
2018-11-22T09:30:13.586Z,10.59
2018-11-22T09:31:13.571Z,11.28
2018-11-22T09:32:13.577Z,12.23
2018-11-22T09:33:13.575Z,12.52
2018-11-22T09:34:13.583Z,12.52
2018-11-22T09:35:13.604Z,12.41
2018-11-22T09:36:13.563Z,11.96
2018-11-22T09:37:13.560Z,12.60
2018-11-22T09:38:13.557Z,13.29
2018-11-22T09:39:13.555Z,13.58
2018-11-22T09:40:13.552Z,13.47
2018-11-22T09:41:13.552Z,12.79
2018-11-22T09:42:13.555Z,10.30
2018-11-22T09:43:13.545Z,9.97
2018-11-22T09:44:13.541Z,10.40
2018-11-22T09:45:13.538Z,10.43
2018-11-22T09:46:13.540Z,9.39
2018-11-22T09:47:13.538Z,9.24
2018-11-22T09:48:13.536Z,9.25
2018-11-22T09:49:13.529Z,10.32
2018-11-22T09:50:13.534Z,11.41
2018-11-22T09:51:13.527Z,12.19
2018-11-22T09:52:13.524Z,12.08
2018-11-22T09:53:13.520Z,12.62
2018-11-22T09:54:13.519Z,13.56
2018-11-22T09:55:13.516Z,13.27
2018-11-22T09:56:13.510Z,13.18
2018-11-22T09:57:13.509Z,12.62
2018-11-22T09:58:13.554Z,11.65
2018-11-22T09:59:13.564Z,11.09
2018-11-22T10:00:13.505Z,10.71
2018-11-22T10:01:13.506Z,10.28
2018-11-22T10:02:13.501Z,10.60
2018-11-22T10:03:13.552Z,11.16
2018-11-22T10:04:13.498Z,11.75
2018-11-22T10:05:13.688Z,11.52
2018-11-22T10:06:13.494Z,11.47
2018-11-22T10:07:13.490Z,11.82
2018-11-22T10:08:13.490Z,12.26
2018-11-22T10:09:13.550Z,12.60
2018-11-22T10:10:13.486Z,12.79
2018-11-22T10:11:13.485Z,13.63
2018-11-22T10:12:13.490Z,13.44
2018-11-22T10:13:13.482Z,13.81
2018-11-22T10:14:13.481Z,13.88
2018-11-22T10:15:13.480Z,14.20
2018-11-22T10:16:13.476Z,15.30
2018-11-22T10:17:13.555Z,15.33
2018-11-22T10:18:13.478Z,14.94
2018-11-22T10:19:13.479Z,15.81
2018-11-22T10:20:13.473Z,15.96
2018-11-22T10:21:13.473Z,15.74
2018-11-22T10:22:13.484Z,15.72
2018-11-22T10:23:13.476Z,15.31
2018-11-22T10:24:13.527Z,15.42
2018-11-22T10:25:13.468Z,15.68
2018-11-22T10:26:13.485Z,15.36
2018-11-22T10:27:13.472Z,14.86
2018-11-22T10:28:13.471Z,15.24
2018-11-22T10:29:13.474Z,15.85
2018-11-22T10:30:13.543Z,15.81
2018-11-22T10:31:13.473Z,16.25
2018-11-22T10:32:13.472Z,16.16
2018-11-22T10:33:13.474Z,16.89
2018-11-22T10:34:13.475Z,17.29
2018-11-22T10:35:13.495Z,17.76
2018-11-22T10:36:13.473Z,17.79
2018-11-22T10:37:13.476Z,18.28
2018-11-22T10:38:13.536Z,17.73
2018-11-22T10:39:13.503Z,17.85
2018-11-22T10:40:13.474Z,18.15
2018-11-22T10:41:13.477Z,18.62
2018-11-22T10:42:13.474Z,17.69
2018-11-22T10:43:13.476Z,17.04
2018-11-22T10:44:13.485Z,16.01
2018-11-22T10:45:13.482Z,15.38
2018-11-22T10:46:13.484Z,15.68
2018-11-22T10:47:13.486Z,15.92
2018-11-22T10:48:13.484Z,15.52
2018-11-22T10:49:13.491Z,15.59
2018-11-22T10:50:13.481Z,15.15
2018-11-22T10:51:13.490Z,14.83
2018-11-22T10:52:13.491Z,15.15
2018-11-22T10:53:13.495Z,16.12
2018-11-22T10:54:13.493Z,16.07
2018-11-22T10:55:13.496Z,16.38
2018-11-22T10:56:13.500Z,17.23
2018-11-22T10:57:13.492Z,17.71
2018-11-22T10:58:13.495Z,17.69
2018-11-22T10:59:13.499Z,17.48
2018-11-22T11:00:13.504Z,17.95
2018-11-22T11:01:13.502Z,18.44
2018-11-22T11:02:13.517Z,18.62
2018-11-22T11:03:13.510Z,17.50
2018-11-22T11:04:13.499Z,16.00
2018-11-22T11:05:13.507Z,15.08
2018-11-22T11:06:13.511Z,14.94
2018-11-22T11:07:13.513Z,15.39
2018-11-22T11:08:13.513Z,16.11
2018-11-22T11:09:13.515Z,16.50
2018-11-22T11:10:13.516Z,15.79
2018-11-22T11:11:13.513Z,16.04
2018-11-22T11:12:13.516Z,17.10
2018-11-22T11:13:13.518Z,17.51
2018-11-22T11:14:13.521Z,17.20
2018-11-22T11:15:13.522Z,17.11
2018-11-22T11:16:13.519Z,17.64
2018-11-22T11:17:13.524Z,18.02
2018-11-22T11:18:13.524Z,18.47
2018-11-22T11:19:13.527Z,17.25
2018-11-22T11:20:13.526Z,16.40
2018-11-22T11:21:13.528Z,16.01
2018-11-22T11:22:13.537Z,16.73
2018-11-22T11:23:13.541Z,16.81
2018-11-22T11:24:13.534Z,15.64
2018-11-22T11:25:13.540Z,14.81
2018-11-22T11:26:13.544Z,14.98
2018-11-22T11:27:13.538Z,15.08
2018-11-22T11:28:13.541Z,15.84
2018-11-22T11:29:13.541Z,15.84
2018-11-22T11:30:13.542Z,16.26
2018-11-22T11:31:13.552Z,16.12
2018-11-22T11:32:13.548Z,17.06
2018-11-22T11:33:13.548Z,17.41
2018-11-22T11:34:13.546Z,17.71
2018-11-22T11:35:13.550Z,17.91
2018-11-22T11:36:17.833Z,17.51
2018-11-22T11:37:13.550Z,17.48
2018-11-22T11:38:13.554Z,17.14
2018-11-22T11:39:13.548Z,16.15
2018-11-22T11:40:13.554Z,16.26
2018-11-22T11:41:13.557Z,16.81
2018-11-22T11:42:13.558Z,17.18
2018-11-22T11:43:13.559Z,17.44
2018-11-22T11:44:13.562Z,17.73
2018-11-22T11:45:13.562Z,18.24
2018-11-22T11:46:13.569Z,18.47
2018-11-22T11:47:13.566Z,19.08
2018-11-22T11:48:13.564Z,19.28
2018-11-22T11:49:13.566Z,18.79
2018-11-22T11:50:13.570Z,18.49
2018-11-22T11:51:13.567Z,17.28
2018-11-22T11:52:13.570Z,17.43
2018-11-22T11:53:13.573Z,17.69
2018-11-22T11:54:13.570Z,16.89
2018-11-22T11:55:13.576Z,17.23
2018-11-22T11:56:13.592Z,17.57
2018-11-22T11:57:13.577Z,17.74
2018-11-22T11:58:13.579Z,18.42
2018-11-22T11:59:13.583Z,18.18
2018-11-22T12:00:13.577Z,18.36
2018-11-22T12:01:13.579Z,18.17
2018-11-22T12:02:15.351Z,16.98
2018-11-22T12:03:13.608Z,15.45
2018-11-22T12:04:13.584Z,14.94
2018-11-22T12:05:13.589Z,14.81
2018-11-22T12:06:13.598Z,15.49
2018-11-22T12:07:13.587Z,16.14
2018-11-22T12:08:13.588Z,16.75
2018-11-22T12:09:13.588Z,17.53
2018-11-22T12:10:13.603Z,17.76
2018-11-22T12:11:13.589Z,18.36
2018-11-22T12:12:13.591Z,18.92
2018-11-22T12:13:13.591Z,18.43
2018-11-22T12:14:13.592Z,18.72
2018-11-22T12:15:13.592Z,18.92
2018-11-22T12:16:13.592Z,18.84
2018-11-22T12:17:13.617Z,17.26
2018-11-22T12:18:13.593Z,16.70
2018-11-22T12:19:13.594Z,16.74
2018-11-22T12:20:13.594Z,16.71
2018-11-22T12:21:13.595Z,15.60
2018-11-22T12:22:13.594Z,14.37
2018-11-22T12:23:13.596Z,13.36
2018-11-22T12:24:13.594Z,12.52
2018-11-22T12:25:13.593Z,12.05
2018-11-22T12:26:13.602Z,11.72
2018-11-22T12:27:13.595Z,11.97
2018-11-22T12:28:13.601Z,11.90
2018-11-22T12:29:13.597Z,11.65
2018-11-22T12:30:13.598Z,11.19
2018-11-22T12:31:13.597Z,11.09
2018-11-22T12:32:13.596Z,11.01
2018-11-22T12:33:13.597Z,10.98
2018-11-22T12:34:13.591Z,10.78
2018-11-22T12:35:13.594Z,10.51
2018-11-22T12:36:13.623Z,10.04
2018-11-22T12:37:13.591Z,9.88
2018-11-22T12:38:13.585Z,10.06
2018-11-22T12:39:13.587Z,9.83
2018-11-22T12:40:13.581Z,10.14
2018-11-22T12:41:13.585Z,10.19
2018-11-22T12:42:13.577Z,10.14
2018-11-22T12:43:13.575Z,10.03
2018-11-22T12:44:13.570Z,10.01
2018-11-22T12:45:13.569Z,9.88
2018-11-22T12:46:13.566Z,9.94
2018-11-22T12:47:13.562Z,9.78
2018-11-22T12:48:13.580Z,9.89
2018-11-22T12:49:13.554Z,9.83
2018-11-22T12:50:13.552Z,9.53
2018-11-22T12:51:13.546Z,9.56
2018-11-22T12:52:13.549Z,9.60
2018-11-22T12:53:13.540Z,9.35
2018-11-22T12:54:13.539Z,9.38
2018-11-22T12:55:13.541Z,9.27
2018-11-22T12:56:13.532Z,9.10
2018-11-22T12:57:13.526Z,9.13
2018-11-22T12:58:13.522Z,9.06
2018-11-22T12:59:13.515Z,8.93
2018-11-22T13:00:13.512Z,8.97
2018-11-22T13:01:13.506Z,8.93
2018-11-22T13:02:18.204Z,8.86
2018-11-22T13:03:13.502Z,8.84
2018-11-22T13:04:13.494Z,8.97
2018-11-22T13:05:13.516Z,8.93
2018-11-22T13:06:13.482Z,8.99
2018-11-22T13:07:13.480Z,8.86
2018-11-22T13:08:13.476Z,8.81
2018-11-22T13:09:13.466Z,8.73
2018-11-22T13:10:13.469Z,8.68
2018-11-22T13:11:13.463Z,8.69
2018-11-22T13:12:13.460Z,8.66